createdAt,value
2015-05-08T00:00:17.937Z,95793
2015-05-08T00:00:36.423Z,95792
2015-05-08T00:00:54.876Z,95790
2015-05-08T00:01:13.454Z,95790
2015-05-08T00:01:32.206Z,95787
2015-05-08T00:01:50.644Z,95798
2015-05-08T00:02:09.112Z,95795
2015-05-08T00:02:27.597Z,95795
2015-05-08T00:02:46.178Z,95795
2015-05-08T00:03:04.928Z,95789
2015-05-08T00:03:23.506Z,95792
2015-05-08T00:03:41.946Z,95789
2015-05-08T00:04:00.383Z,95795
2015-05-08T00:04:18.992Z,95792
2015-05-08T00:04:37.588Z,95792
2015-05-08T00:04:56.041Z,95792
2015-05-08T00:05:14.463Z,95789
2015-05-08T00:05:32.901Z,95789
2015-05-08T00:05:51.294Z,95792
2015-05-08T00:06:09.888Z,95786
2015-05-08T00:06:28.372Z,95783
2015-05-08T00:06:46.749Z,95792
2015-05-08T00:07:05.171Z,95786
2015-05-08T00:07:23.656Z,95789
2015-05-08T00:07:42.173Z,95789
2015-05-08T00:08:00.548Z,95783
2015-05-08T00:08:19.033Z,95786
2015-05-08T00:08:37.439Z,95789
2015-05-08T00:08:55.847Z,95783
2015-05-08T00:09:13.613Z,95789
2015-05-08T00:09:32.019Z,95786
2015-05-08T00:09:50.522Z,95791
2015-05-08T00:10:08.975Z,95786
2015-05-08T00:10:27.366Z,95786
2015-05-08T00:10:45.853Z,95786
2015-05-08T00:11:04.384Z,95788
2015-05-08T00:11:22.775Z,95783
2015-05-08T00:11:41.166Z,95783
2015-05-08T00:11:59.636Z,95785
2015-05-08T00:12:18.043Z,95780
2015-05-08T00:12:36.433Z,95791
2015-05-08T00:12:54.935Z,95783
2015-05-08T00:13:13.498Z,95785
2015-05-08T00:13:32.029Z,95780
2015-05-08T00:13:50.516Z,95780
2015-05-08T00:14:09.220Z,95780
2015-05-08T00:14:27.626Z,95780
2015-05-08T00:14:46.016Z,95780
2015-05-08T00:15:04.440Z,95785
2015-05-08T00:15:22.925Z,95785
2015-05-08T00:15:41.315Z,95775
2015-05-08T00:15:59.755Z,95779
2015-05-08T00:16:18.270Z,95780
2015-05-08T00:16:36.724Z,95782
2015-05-08T00:16:55.195Z,95777
2015-05-08T00:17:13.617Z,95782
2015-05-08T00:17:32.070Z,95785
2015-05-08T00:17:50.664Z,95772
2015-05-08T00:18:09.041Z,95782
2015-05-08T00:18:27.510Z,95788
2015-05-08T00:18:45.994Z,95782
2015-05-08T00:19:04.528Z,95782
2015-05-08T00:19:23.028Z,95772
2015-05-08T00:19:41.482Z,95775
2015-05-08T00:19:59.857Z,95779
2015-05-08T00:20:18.312Z,95772
2015-05-08T00:20:36.827Z,95775
2015-05-08T00:20:55.343Z,95766
2015-05-08T00:21:13.924Z,95772
2015-05-08T00:21:32.346Z,95766
2015-05-08T00:21:50.893Z,95772
2015-05-08T00:22:09.457Z,95772
2015-05-08T00:22:28.067Z,95779
2015-05-08T00:22:46.785Z,95772
2015-05-08T00:23:05.348Z,95772
2015-05-08T00:23:23.756Z,95764
2015-05-08T00:23:42.225Z,95772
2015-05-08T00:24:00.772Z,95779
2015-05-08T00:24:19.322Z,95775
2015-05-08T00:24:38.040Z,95761
2015-05-08T00:24:56.728Z,95769
2015-05-08T00:25:15.121Z,95764
2015-05-08T00:25:33.542Z,95772
2015-05-08T00:25:52.121Z,95769
2015-05-08T00:26:10.574Z,95758
2015-05-08T00:26:29.185Z,95766
2015-05-08T00:26:47.873Z,95764
2015-05-08T00:27:06.279Z,95772
2015-05-08T00:27:24.688Z,95767
2015-05-08T00:27:43.063Z,95758
2015-05-08T00:28:01.501Z,95764
2015-05-08T00:28:19.893Z,95766
2015-05-08T00:28:38.331Z,95769
2015-05-08T00:28:56.784Z,95766
2015-05-08T00:29:15.176Z,95764
2015-05-08T00:29:33.567Z,95766
2015-05-08T00:29:52.176Z,95764
2015-05-08T00:30:10.567Z,95764
2015-05-08T00:30:28.960Z,95758
2015-05-08T00:30:47.507Z,95761
2015-05-08T00:31:05.882Z,95746
2015-05-08T00:31:24.400Z,95766
2015-05-08T00:31:42.791Z,95755
2015-05-08T00:32:01.244Z,95764
2015-05-08T00:32:19.855Z,95764
2015-05-08T00:32:38.433Z,95769
2015-05-08T00:32:56.949Z,95761
2015-05-08T00:33:15.512Z,95761
2015-05-08T00:33:34.093Z,95764
2015-05-08T00:33:52.499Z,95755
2015-05-08T00:34:10.905Z,95764
2015-05-08T00:34:29.454Z,95752
2015-05-08T00:34:47.845Z,95764
2015-05-08T00:35:06.235Z,95763
2015-05-08T00:35:24.737Z,95764
2015-05-08T00:35:42.487Z,95758
2015-05-08T00:36:00.940Z,95758
2015-05-08T00:36:19.456Z,95761
2015-05-08T00:36:37.975Z,95761
2015-05-08T00:36:56.428Z,95758
2015-05-08T00:37:14.818Z,95766
2015-05-08T00:37:33.289Z,95760
2015-05-08T00:37:51.711Z,95763
2015-05-08T00:38:10.133Z,95760
2015-05-08T00:38:28.635Z,95760
2015-05-08T00:38:47.510Z,95755
2015-05-08T00:39:06.135Z,95752
2015-05-08T00:39:24.809Z,95757
2015-05-08T00:39:43.481Z,95746
2015-05-08T00:40:02.121Z,95757
2015-05-08T00:40:20.606Z,95766
2015-05-08T00:40:39.156Z,95760
2015-05-08T00:40:57.702Z,95754
2015-05-08T00:41:16.327Z,95760
2015-05-08T00:41:34.846Z,95757
2015-05-08T00:41:53.252Z,95752
2015-05-08T00:42:11.690Z,95754
2015-05-08T00:42:30.096Z,95766
2015-05-08T00:42:48.567Z,95760
2015-05-08T00:43:07.161Z,95757
2015-05-08T00:43:25.567Z,95746
2015-05-08T00:43:44.178Z,95754
2015-05-08T00:44:02.803Z,95751
2015-05-08T00:44:21.381Z,95754
2015-05-08T00:44:39.884Z,95748
2015-05-08T00:44:58.384Z,95748
2015-05-08T00:45:16.822Z,95748
2015-05-08T00:45:35.525Z,95757
2015-05-08T00:45:54.136Z,95754
2015-05-08T00:46:12.621Z,95754
2015-05-08T00:46:31.308Z,95751
2015-05-08T00:46:49.795Z,95742
2015-05-08T00:47:08.373Z,95754
2015-05-08T00:47:27.013Z,95748
2015-05-08T00:47:45.248Z,95748
2015-05-08T00:48:03.688Z,95745
2015-05-08T00:48:22.094Z,95742
2015-05-08T00:48:40.563Z,95742
2015-05-08T00:48:59.285Z,95748
2015-05-08T00:49:17.738Z,95742
2015-05-08T00:49:36.285Z,95751
2015-05-08T00:49:54.818Z,95736
2015-05-08T00:50:13.209Z,95739
2015-05-08T00:50:31.756Z,95742
2015-05-08T00:50:50.475Z,95736
2015-05-08T00:51:08.882Z,95739
2015-05-08T00:51:27.522Z,95739
2015-05-08T00:51:46.147Z,95739
2015-05-08T00:52:04.603Z,95742
2015-05-08T00:52:23.135Z,95736
2015-05-08T00:52:41.682Z,95739
2015-05-08T00:53:00.262Z,95736
2015-05-08T00:53:18.918Z,95731
2015-05-08T00:53:37.480Z,95742
2015-05-08T00:53:55.858Z,95742
2015-05-08T00:54:14.405Z,95733
2015-05-08T00:54:32.874Z,95739
2015-05-08T00:54:51.312Z,95739
2015-05-08T00:55:10.079Z,95730
2015-05-08T00:55:28.501Z,95745
2015-05-08T00:55:47.017Z,95742
2015-05-08T00:56:05.520Z,95733
2015-05-08T00:56:24.160Z,95736
2015-05-08T00:56:42.629Z,95742
2015-05-08T00:57:01.178Z,95747
2015-05-08T00:57:19.740Z,95730
2015-05-08T00:57:38.256Z,95744
2015-05-08T00:57:56.694Z,95742
2015-05-08T00:58:15.197Z,95736
2015-05-08T00:58:33.900Z,95744
2015-05-08T00:58:52.431Z,95741
2015-05-08T00:59:11.058Z,95744
2015-05-08T00:59:29.636Z,95736
2015-05-08T00:59:48.136Z,95741
2015-05-08T01:00:06.732Z,95735
2015-05-08T01:00:25.122Z,95744
2015-05-08T01:00:43.654Z,95735
2015-05-08T01:01:02.060Z,95741
2015-05-08T01:01:20.640Z,95744
2015-05-08T01:01:39.046Z,95741
2015-05-08T01:01:57.624Z,95738
2015-05-08T01:02:16.112Z,95741
2015-05-08T01:02:34.612Z,95735
2015-05-08T01:02:53.002Z,95738
2015-05-08T01:03:11.534Z,95735
2015-05-08T01:03:30.084Z,95741
2015-05-08T01:03:48.505Z,95732
2015-05-08T01:04:07.177Z,95735
2015-05-08T01:04:25.601Z,95729
2015-05-08T01:04:44.257Z,95735
2015-05-08T01:05:02.804Z,95735
2015-05-08T01:05:21.244Z,95729
2015-05-08T01:05:39.900Z,95732
2015-05-08T01:05:58.322Z,95732
2015-05-08T01:06:16.931Z,95732
2015-05-08T01:06:35.433Z,95740
2015-05-08T01:06:54.230Z,95729
2015-05-08T01:07:12.699Z,95723
2015-05-08T01:07:31.125Z,95723
2015-05-08T01:07:49.594Z,95732
2015-05-08T01:08:08.219Z,95720
2015-05-08T01:08:26.625Z,95720
2015-05-08T01:08:45.048Z,95729
2015-05-08T01:09:03.532Z,95729
2015-05-08T01:09:22.235Z,95720
2015-05-08T01:09:40.863Z,95723
2015-05-08T01:09:59.269Z,95723
2015-05-08T01:10:17.973Z,95723
2015-05-08T01:10:36.475Z,95726
2015-05-08T01:10:54.975Z,95726
2015-05-08T01:11:13.521Z,95723
2015-05-08T01:11:31.931Z,95726
2015-05-08T01:11:50.337Z,95723
2015-05-08T01:12:08.806Z,95723
2015-05-08T01:12:27.290Z,95720
2015-05-08T01:12:45.948Z,95732
2015-05-08T01:13:04.511Z,95723
2015-05-08T01:13:23.261Z,95726
2015-05-08T01:13:41.653Z,95729
2015-05-08T01:14:00.107Z,95723
2015-05-08T01:14:18.528Z,95729
2015-05-08T01:14:36.577Z,95726
2015-05-08T01:14:55.155Z,95723
2015-05-08T01:15:13.780Z,95726
2015-05-08T01:15:32.405Z,95720
2015-05-08T01:15:50.987Z,95726
2015-05-08T01:16:09.612Z,95734
2015-05-08T01:16:28.112Z,95726
2015-05-08T01:16:46.504Z,95734
2015-05-08T01:17:04.910Z,95731
2015-05-08T01:17:23.332Z,95731
2015-05-08T01:17:41.742Z,95731
2015-05-08T01:18:00.210Z,95726
2015-05-08T01:18:18.663Z,95731
2015-05-08T01:18:37.163Z,95723
2015-05-08T01:18:55.650Z,95728
2015-05-08T01:19:14.040Z,95728
2015-05-08T01:19:32.884Z,95723
2015-05-08T01:19:51.184Z,95731
2015-05-08T01:20:09.778Z,95720
2015-05-08T01:20:28.247Z,95717
2015-05-08T01:20:46.702Z,95719
2015-05-08T01:21:05.124Z,95728
2015-05-08T01:21:23.702Z,95728
2015-05-08T01:21:42.108Z,95731
2015-05-08T01:22:00.688Z,95723
2015-05-08T01:22:19.001Z,95728
2015-05-08T01:22:37.360Z,95725
2015-05-08T01:22:56.050Z,95728
2015-05-08T01:23:14.582Z,95731
2015-05-08T01:23:33.191Z,95734
2015-05-08T01:23:51.676Z,95717
2015-05-08T01:24:10.223Z,95720
2015-05-08T01:24:28.708Z,95728
2015-05-08T01:24:47.208Z,95731
2015-05-08T01:25:05.789Z,95731
2015-05-08T01:25:24.226Z,95734
2015-05-08T01:25:42.726Z,95734
2015-05-08T01:26:01.198Z,95731
2015-05-08T01:26:19.776Z,95734
2015-05-08T01:26:38.167Z,95723
2015-05-08T01:26:56.622Z,95728
2015-05-08T01:27:15.059Z,95723
2015-05-08T01:27:33.419Z,95728
2015-05-08T01:27:51.934Z,95731
2015-05-08T01:28:10.516Z,95726
2015-05-08T01:28:48.281Z,95726
2015-05-08T01:29:06.893Z,95737
2015-05-08T01:29:25.268Z,95726
2015-05-08T01:29:43.502Z,95726
2015-05-08T01:30:01.908Z,95723
2015-05-08T01:30:20.504Z,95726
2015-05-08T01:30:38.879Z,95729
2015-05-08T01:30:57.316Z,95720
2015-05-08T01:31:15.726Z,95729
2015-05-08T01:31:34.116Z,95723
2015-05-08T01:31:52.554Z,95726
2015-05-08T01:32:10.993Z,95729
2015-05-08T01:32:29.384Z,95720
2015-05-08T01:32:47.775Z,95720
2015-05-08T01:33:06.384Z,95720
2015-05-08T01:33:24.855Z,95720
2015-05-08T01:33:43.261Z,95715
2015-05-08T01:34:01.683Z,95726
2015-05-08T01:34:20.076Z,95723
2015-05-08T01:34:38.514Z,95723
2015-05-08T01:34:56.983Z,95729
2015-05-08T01:35:15.375Z,95726
2015-05-08T01:35:33.844Z,95726
2015-05-08T01:35:52.500Z,95715
2015-05-08T01:36:11.049Z,95721
2015-05-08T01:36:29.440Z,95727
2015-05-08T01:36:47.862Z,95718
2015-05-08T01:37:06.315Z,95732
2015-05-08T01:37:24.802Z,95721
2015-05-08T01:37:43.208Z,95727
2015-05-08T01:38:01.724Z,95721
2015-05-08T01:38:20.226Z,95719
2015-05-08T01:38:38.617Z,95724
2015-05-08T01:38:57.039Z,95719
2015-05-08T01:39:15.431Z,95730
2015-05-08T01:39:33.978Z,95736
2015-05-08T01:39:52.369Z,95722
2015-05-08T01:40:10.759Z,95727
2015-05-08T01:40:29.231Z,95722
2015-05-08T01:40:47.669Z,95722
2015-05-08T01:41:06.215Z,95725
2015-05-08T01:41:24.717Z,95728
2015-05-08T01:41:43.249Z,95722
2015-05-08T01:42:01.639Z,95719
2015-05-08T01:42:20.079Z,95728
2015-05-08T01:42:38.735Z,95719
2015-05-08T01:42:57.126Z,95725
2015-05-08T01:43:15.719Z,95722
2015-05-08T01:43:34.301Z,95722
2015-05-08T01:43:52.894Z,95728
2015-05-08T01:44:11.269Z,95725
2015-05-08T01:44:29.756Z,95722
2015-05-08T01:44:48.412Z,95719
2015-05-08T01:45:06.865Z,95722
2015-05-08T01:45:25.445Z,95719
2015-05-08T01:45:44.055Z,95731
2015-05-08T01:46:02.680Z,95725
2015-05-08T01:46:21.308Z,95722
2015-05-08T01:46:39.792Z,95725
2015-05-08T01:46:58.495Z,95728
2015-05-08T01:47:17.214Z,95725
2015-05-08T01:47:35.622Z,95719
2015-05-08T01:47:54.013Z,95719
2015-05-08T01:48:12.403Z,95719
2015-05-08T01:48:30.921Z,95722
2015-05-08T01:48:49.515Z,95722
2015-05-08T01:49:08.140Z,95725
2015-05-08T01:49:26.515Z,95725
2015-05-08T01:49:45.174Z,95719
2015-05-08T01:50:03.565Z,95717
2015-05-08T01:50:22.002Z,95725
2015-05-08T01:50:40.613Z,95719
2015-05-08T01:50:58.988Z,95719
2015-05-08T01:51:17.520Z,95719
2015-05-08T01:51:35.898Z,95722
2015-05-08T01:51:54.429Z,95711
2015-05-08T01:52:12.976Z,95716
2015-05-08T01:52:31.366Z,95709
2015-05-08T01:52:49.838Z,95716
2015-05-08T01:53:08.260Z,95714
2015-05-08T01:53:26.651Z,95725
2015-05-08T01:53:45.183Z,95719
2015-05-08T01:54:03.574Z,95714
2015-05-08T01:54:22.089Z,95722
2015-05-08T01:54:40.480Z,95709
2015-05-08T01:54:59.061Z,95722
2015-05-08T01:55:17.577Z,95714
2015-05-08T01:55:35.967Z,95719
2015-05-08T01:55:54.469Z,95719
2015-05-08T01:56:13.063Z,95719
2015-05-08T01:56:31.782Z,95722
2015-05-08T01:56:50.269Z,95714
2015-05-08T01:57:08.847Z,95719
2015-05-08T01:57:27.285Z,95714
2015-05-08T01:57:45.691Z,95716
2015-05-08T01:58:04.084Z,95728
2015-05-08T01:58:22.505Z,95714
2015-05-08T01:58:40.880Z,95719
2015-05-08T01:58:59.570Z,95725
2015-05-08T01:59:17.992Z,95717
2015-05-08T01:59:36.539Z,95725
2015-05-08T01:59:55.073Z,95725
2015-05-08T02:00:13.542Z,95725
2015-05-08T02:00:32.073Z,95719
2015-05-08T02:00:50.528Z,95720
2015-05-08T02:01:09.106Z,95725
2015-05-08T02:01:27.700Z,95720
2015-05-08T02:01:46.091Z,95717
2015-05-08T02:02:04.484Z,95717
2015-05-08T02:02:23.000Z,95709
2015-05-08T02:02:41.453Z,95714
2015-05-08T02:02:59.846Z,95714
2015-05-08T02:03:18.252Z,95720
2015-05-08T02:03:36.752Z,95709
2015-05-08T02:03:55.177Z,95710
2015-05-08T02:04:13.583Z,95715
2015-05-08T02:04:32.145Z,95715
2015-05-08T02:04:50.661Z,95717
2015-05-08T02:05:09.147Z,95704
2015-05-08T02:05:27.569Z,95704
2015-05-08T02:05:46.163Z,95710
2015-05-08T02:06:04.587Z,95715
2015-05-08T02:06:23.134Z,95704
2015-05-08T02:06:41.587Z,95707
2015-05-08T02:07:00.042Z,95707
2015-05-08T02:07:18.480Z,95707
2015-05-08T02:07:36.901Z,95710
2015-05-08T02:07:55.355Z,95710
2015-05-08T02:08:13.778Z,95704
2015-05-08T02:08:32.169Z,95701
2015-05-08T02:08:50.591Z,95710
2015-05-08T02:09:09.000Z,95710
2015-05-08T02:09:27.391Z,95710
2015-05-08T02:09:45.875Z,95710
2015-05-08T02:10:04.268Z,95715
2015-05-08T02:10:22.705Z,95701
2015-05-08T02:10:41.096Z,95710
2015-05-08T02:10:59.565Z,95715
2015-05-08T02:11:18.115Z,95704
2015-05-08T02:11:36.552Z,95704
2015-05-08T02:11:54.943Z,95715
2015-05-08T02:12:13.335Z,95710
2015-05-08T02:12:31.773Z,95704
2015-05-08T02:12:50.163Z,95715
2015-05-08T02:13:08.697Z,95723
2015-05-08T02:13:27.884Z,95715
2015-05-08T02:13:46.400Z,95717
2015-05-08T02:14:04.997Z,95710
2015-05-08T02:14:23.497Z,95710
2015-05-08T02:14:42.059Z,95710
2015-05-08T02:15:00.481Z,95718
2015-05-08T02:15:18.906Z,95721
2015-05-08T02:15:37.375Z,95718
2015-05-08T02:15:55.984Z,95710
2015-05-08T02:16:14.377Z,95715
2015-05-08T02:16:33.220Z,95718
2015-05-08T02:16:51.673Z,95715
2015-05-08T02:17:10.330Z,95710
2015-05-08T02:17:28.769Z,95720
2015-05-08T02:17:47.332Z,95718
2015-05-08T02:18:05.925Z,95707
2015-05-08T02:18:24.506Z,95704
2015-05-08T02:18:42.959Z,95701
2015-05-08T02:19:01.802Z,95710
2015-05-08T02:19:20.365Z,95704
2015-05-08T02:19:38.977Z,95714
2015-05-08T02:19:57.415Z,95714
2015-05-08T02:20:15.993Z,95707
2015-05-08T02:20:34.464Z,95704
2015-05-08T02:20:52.886Z,95707
2015-05-08T02:21:11.307Z,95710
2015-05-08T02:21:29.920Z,95710
2015-05-08T02:21:48.451Z,95710
2015-05-08T02:22:06.920Z,95701
2015-05-08T02:22:25.469Z,95699
2015-05-08T02:22:44.016Z,95707
2015-05-08T02:23:02.437Z,95710
2015-05-08T02:23:21.219Z,95710
2015-05-08T02:23:39.658Z,95707
2015-05-08T02:23:58.189Z,95707
2015-05-08T02:24:16.768Z,95710
2015-05-08T02:24:35.176Z,95714
2015-05-08T02:24:53.691Z,95714
2015-05-08T02:25:12.332Z,95714
2015-05-08T02:25:30.819Z,95704
2015-05-08T02:25:49.319Z,95714
2015-05-08T02:26:08.085Z,95707
2015-05-08T02:26:26.601Z,95701
2015-05-08T02:26:45.087Z,95704
2015-05-08T02:27:03.540Z,95704
2015-05-08T02:27:21.946Z,95704
2015-05-08T02:27:40.349Z,95701
2015-05-08T02:27:58.849Z,95706
2015-05-08T02:28:17.349Z,95698
2015-05-08T02:28:35.755Z,95698
2015-05-08T02:28:54.395Z,95701
2015-05-08T02:29:12.833Z,95695
2015-05-08T02:29:31.255Z,95698
2015-05-08T02:29:49.660Z,95698
2015-05-08T02:30:08.145Z,95692
2015-05-08T02:30:26.692Z,95695
2015-05-08T02:30:44.644Z,95695
2015-05-08T02:31:03.160Z,95701
2015-05-08T02:31:21.863Z,95689
2015-05-08T02:31:40.347Z,95695
2015-05-08T02:31:58.737Z,95695
2015-05-08T02:32:17.409Z,95689
2015-05-08T02:32:36.072Z,95695
2015-05-08T02:32:54.557Z,95700
2015-05-08T02:33:13.025Z,95695
2015-05-08T02:33:31.604Z,95686
2015-05-08T02:33:50.032Z,95695
2015-05-08T02:34:08.814Z,95695
2015-05-08T02:34:27.204Z,95695
2015-05-08T02:34:45.805Z,95689
2015-05-08T02:35:04.227Z,95703
2015-05-08T02:35:22.789Z,95695
2015-05-08T02:35:41.243Z,95686
2015-05-08T02:35:59.920Z,95692
2015-05-08T02:36:18.405Z,95695
2015-05-08T02:36:36.858Z,95686
2015-05-08T02:36:55.366Z,95697
2015-05-08T02:37:13.897Z,95697
2015-05-08T02:37:32.397Z,95700
2015-05-08T02:37:50.978Z,95689
2015-05-08T02:38:09.510Z,95695
2015-05-08T02:38:27.978Z,95692
2015-05-08T02:38:46.463Z,95694
2015-05-08T02:39:04.905Z,95691
2015-05-08T02:39:23.343Z,95691
2015-05-08T02:39:41.811Z,95694
2015-05-08T02:40:00.222Z,95703
2015-05-08T02:40:18.940Z,95697
2015-05-08T02:40:37.362Z,95688
2015-05-08T02:40:55.769Z,95700
2015-05-08T02:41:14.226Z,95691
2015-05-08T02:41:32.757Z,95694
2015-05-08T02:41:51.319Z,95697
2015-05-08T02:42:09.838Z,95691
2015-05-08T02:42:28.229Z,95694
2015-05-08T02:42:46.697Z,95694
2015-05-08T02:43:05.138Z,95696
2015-05-08T02:43:22.904Z,95702
2015-05-08T02:43:41.482Z,95702
2015-05-08T02:43:59.997Z,95688
2015-05-08T02:44:18.625Z,95693
2015-05-08T02:44:37.032Z,95690
2015-05-08T02:44:55.438Z,95696
2015-05-08T02:45:13.942Z,95693
2015-05-08T02:45:32.348Z,95685
2015-05-08T02:45:50.817Z,95693
2015-05-08T02:46:09.414Z,95688
2015-05-08T02:46:27.851Z,95685
2015-05-08T02:46:46.273Z,95679
2015-05-08T02:47:04.979Z,95685
2015-05-08T02:47:23.495Z,95682
2015-05-08T02:47:42.088Z,95685
2015-05-08T02:48:00.604Z,95687
2015-05-08T02:48:19.012Z,95685
2015-05-08T02:48:37.512Z,95688
2015-05-08T02:48:55.997Z,95687
2015-05-08T02:49:14.389Z,95684
2015-05-08T02:49:32.796Z,95679
2015-05-08T02:49:51.530Z,95685
2015-05-08T02:50:09.485Z,95682
2015-05-08T02:50:27.985Z,95679
2015-05-08T02:50:46.673Z,95679
2015-05-08T02:51:05.126Z,95673
2015-05-08T02:51:23.519Z,95682
2015-05-08T02:51:42.019Z,95682
2015-05-08T02:52:00.488Z,95685
2015-05-08T02:52:19.459Z,95679
2015-05-08T02:52:37.881Z,95676
2015-05-08T02:52:56.521Z,95682
2015-05-08T02:53:14.993Z,95673
2015-05-08T02:53:33.618Z,95679
2015-05-08T02:53:52.415Z,95671
2015-05-08T02:54:10.870Z,95679
2015-05-08T02:54:29.308Z,95671
2015-05-08T02:54:47.886Z,95679
2015-05-08T02:55:06.308Z,95665
2015-05-08T02:55:24.842Z,95676
2015-05-08T02:55:43.436Z,95673
2015-05-08T02:56:01.889Z,95676
2015-05-08T02:56:20.437Z,95679
2015-05-08T02:56:38.874Z,95667
2015-05-08T02:56:57.437Z,95673
2015-05-08T02:57:15.905Z,95670
2015-05-08T02:57:34.394Z,95670
2015-05-08T02:57:52.784Z,95673
2015-05-08T02:58:11.175Z,95670
2015-05-08T02:58:30.489Z,95679
2015-05-08T02:58:49.068Z,95676
2015-05-08T02:59:07.552Z,95676
2015-05-08T02:59:26.007Z,95679
2015-05-08T02:59:44.476Z,95684
2015-05-08T03:00:02.929Z,95676
2015-05-08T03:00:21.429Z,95676
2015-05-08T03:00:39.823Z,95673
2015-05-08T03:00:58.369Z,95679
2015-05-08T03:01:16.760Z,95679
2015-05-08T03:01:35.356Z,95670
2015-05-08T03:01:53.934Z,95676
2015-05-08T03:02:12.418Z,95673
2015-05-08T03:02:30.871Z,95679
2015-05-08T03:02:49.280Z,95676
2015-05-08T03:03:07.842Z,95679
2015-05-08T03:03:26.389Z,95676
2015-05-08T03:03:44.970Z,95682
2015-05-08T03:04:03.361Z,95673
2015-05-08T03:04:22.048Z,95679
2015-05-08T03:04:40.457Z,95687
2015-05-08T03:04:58.910Z,95679
2015-05-08T03:05:17.535Z,95684
2015-05-08T03:05:35.957Z,95676
2015-05-08T03:05:54.412Z,95679
2015-05-08T03:06:12.802Z,95687
2015-05-08T03:06:31.287Z,95684
2015-05-08T03:06:49.852Z,95684
2015-05-08T03:07:08.446Z,95681
2015-05-08T03:07:26.883Z,95687
2015-05-08T03:07:45.292Z,95684
2015-05-08T03:08:03.823Z,95684
2015-05-08T03:08:22.307Z,95676
2015-05-08T03:08:40.685Z,95667
2015-05-08T03:08:59.420Z,95684
2015-05-08T03:09:17.904Z,95676
2015-05-08T03:09:36.295Z,95684
2015-05-08T03:09:54.686Z,95679
2015-05-08T03:10:13.061Z,95681
2015-05-08T03:10:31.639Z,95682
2015-05-08T03:10:50.143Z,95679
2015-05-08T03:11:08.534Z,95679
2015-05-08T03:11:27.003Z,95676
2015-05-08T03:11:45.599Z,95673
2015-05-08T03:12:04.302Z,95679
2015-05-08T03:12:22.739Z,95676
2015-05-08T03:12:41.411Z,95676
2015-05-08T03:12:59.882Z,95671
2015-05-08T03:13:18.382Z,95685
2015-05-08T03:13:36.882Z,95679
2015-05-08T03:13:55.571Z,95677
2015-05-08T03:14:13.993Z,95677
2015-05-08T03:14:32.899Z,95677
2015-05-08T03:14:51.370Z,95671
2015-05-08T03:15:09.886Z,95685
2015-05-08T03:15:28.542Z,95682
2015-05-08T03:15:47.042Z,95688
2015-05-08T03:16:05.529Z,95674
2015-05-08T03:16:24.467Z,95674
2015-05-08T03:16:42.873Z,95671
2015-05-08T03:17:01.469Z,95683
2015-05-08T03:17:20.110Z,95671
2015-05-08T03:17:38.672Z,95685
2015-05-08T03:17:57.268Z,95680
2015-05-08T03:18:15.737Z,95677
2015-05-08T03:18:34.315Z,95683
2015-05-08T03:18:52.768Z,95677
2015-05-08T03:19:11.505Z,95683
2015-05-08T03:19:29.911Z,95674
2015-05-08T03:19:48.521Z,95671
2015-05-08T03:20:07.102Z,95671
2015-05-08T03:20:25.618Z,95671
2015-05-08T03:20:44.102Z,95677
2015-05-08T03:21:02.573Z,95677
2015-05-08T03:21:21.026Z,95680
2015-05-08T03:21:39.541Z,95672
2015-05-08T03:21:58.276Z,95677
2015-05-08T03:22:16.668Z,95666
2015-05-08T03:22:35.231Z,95675
2015-05-08T03:22:53.653Z,95672
2015-05-08T03:23:12.375Z,95683
2015-05-08T03:23:30.859Z,95683
2015-05-08T03:23:49.500Z,95675
2015-05-08T03:24:08.000Z,95678
2015-05-08T03:24:26.659Z,95681
2015-05-08T03:24:45.049Z,95681
2015-05-08T03:25:03.565Z,95672
2015-05-08T03:25:22.363Z,95681
2015-05-08T03:25:40.785Z,95681
2015-05-08T03:25:59.425Z,95689
2015-05-08T03:26:17.834Z,95681
2015-05-08T03:26:36.256Z,95686
2015-05-08T03:26:54.990Z,95686
2015-05-08T03:27:13.571Z,95681
2015-05-08T03:27:32.134Z,95683
2015-05-08T03:27:50.509Z,95686
2015-05-08T03:28:08.915Z,95686
2015-05-08T03:28:27.512Z,95683
2015-05-08T03:28:46.246Z,95678
2015-05-08T03:29:04.980Z,95684
2015-05-08T03:29:23.451Z,95678
2015-05-08T03:29:42.076Z,95678
2015-05-08T03:30:00.576Z,95689
2015-05-08T03:30:19.047Z,95678
2015-05-08T03:30:37.594Z,95683
2015-05-08T03:30:56.047Z,95695
2015-05-08T03:31:14.797Z,95689
2015-05-08T03:31:33.550Z,95683
2015-05-08T03:31:51.925Z,95692
2015-05-08T03:32:10.315Z,95689
2015-05-08T03:32:28.926Z,95683
2015-05-08T03:32:47.613Z,95683
2015-05-08T03:33:06.379Z,95689
2015-05-08T03:33:25.163Z,95692
2015-05-08T03:33:43.585Z,95692
2015-05-08T03:34:01.976Z,95692
2015-05-08T03:34:20.366Z,95695
2015-05-08T03:34:38.885Z,95695
2015-05-08T03:34:57.432Z,95689
2015-05-08T03:35:15.822Z,95701
2015-05-08T03:35:34.293Z,95689
2015-05-08T03:35:52.715Z,95692
2015-05-08T03:36:11.137Z,95701
2015-05-08T03:36:29.562Z,95695
2015-05-08T03:36:48.265Z,95689
2015-05-08T03:37:06.718Z,95689
2015-05-08T03:37:25.202Z,95695
2015-05-08T03:37:43.595Z,95692
2015-05-08T03:38:02.017Z,95678
2015-05-08T03:38:20.517Z,95695
2015-05-08T03:38:39.348Z,95692
2015-05-08T03:38:57.770Z,95689
2015-05-08T03:39:16.161Z,95686
2015-05-08T03:39:34.614Z,95689
2015-05-08T03:39:52.412Z,95689
2015-05-08T03:40:10.802Z,95683
2015-05-08T03:40:29.349Z,95689
2015-05-08T03:40:47.930Z,95689
2015-05-08T03:41:06.321Z,95689
2015-05-08T03:41:24.821Z,95683
2015-05-08T03:41:43.227Z,95689
2015-05-08T03:42:01.668Z,95689
2015-05-08T03:42:20.152Z,95686
2015-05-08T03:42:38.699Z,95689
2015-05-08T03:42:57.107Z,95683
2015-05-08T03:43:15.670Z,95689
2015-05-08T03:43:34.138Z,95689
2015-05-08T03:43:52.609Z,95694
2015-05-08T03:44:11.062Z,95688
2015-05-08T03:44:29.578Z,95694
2015-05-08T03:44:48.109Z,95709
2015-05-08T03:45:06.581Z,95694
2015-05-08T03:45:25.362Z,95689
2015-05-08T03:45:44.050Z,95689
2015-05-08T03:46:02.443Z,95691
2015-05-08T03:46:20.865Z,95697
2015-05-08T03:46:38.646Z,95692
2015-05-08T03:46:57.053Z,95697
2015-05-08T03:47:15.445Z,95706
2015-05-08T03:47:33.898Z,95686
2015-05-08T03:47:52.383Z,95694
2015-05-08T03:48:10.807Z,95692
2015-05-08T03:48:29.338Z,95694
2015-05-08T03:48:47.932Z,95694
2015-05-08T03:49:06.418Z,95689
2015-05-08T03:49:25.105Z,95694
2015-05-08T03:49:43.574Z,95694
2015-05-08T03:50:02.121Z,95688
2015-05-08T03:50:20.515Z,95691
2015-05-08T03:50:38.921Z,95694
2015-05-08T03:50:57.405Z,95686
2015-05-08T03:51:15.814Z,95694
2015-05-08T03:51:34.235Z,95694
2015-05-08T03:51:52.626Z,95677
2015-05-08T03:52:11.067Z,95691
2015-05-08T03:52:29.520Z,95689
2015-05-08T03:52:47.973Z,95692
2015-05-08T03:53:06.506Z,95689
2015-05-08T03:53:25.194Z,95689
2015-05-08T03:53:43.584Z,95683
2015-05-08T03:54:02.303Z,95686
2015-05-08T03:54:20.758Z,95677
2015-05-08T03:54:39.461Z,95683
2015-05-08T03:54:57.899Z,95691
2015-05-08T03:55:16.620Z,95686
2015-05-08T03:55:35.152Z,95689
2015-05-08T03:55:53.902Z,95689
2015-05-08T03:56:12.451Z,95689
2015-05-08T03:56:30.872Z,95691
2015-05-08T03:56:49.466Z,95686
2015-05-08T03:57:07.951Z,95683
2015-05-08T03:57:26.546Z,95683
2015-05-08T03:57:44.937Z,95694
2015-05-08T03:58:03.390Z,95694
2015-05-08T03:58:22.064Z,95683
2015-05-08T03:58:40.751Z,95686